sensor_id;sensor_type;location;lat;lon;timestamp;P1;durP1;ratioP1;P2;durP2;ratioP2
2772;SDS011;1394;47.044;15.744;2022-07-17T00:01:57;10.10;;;9.30;;
2772;SDS011;1394;47.044;15.744;2022-07-17T00:04:25;9.83;;;9.03;;
2772;SDS011;1394;47.044;15.744;2022-07-17T00:06:53;9.47;;;8.67;;
2772;SDS011;1394;47.044;15.744;2022-07-17T00:09:20;10.60;;;9.70;;
2772;SDS011;1394;47.044;15.744;2022-07-17T00:11:47;9.20;;;8.40;;
2772;SDS011;1394;47.044;15.744;2022-07-17T00:14:14;10.70;;;9.70;;
2772;SDS011;1394;47.044;15.744;2022-07-17T00:16:42;9.20;;;8.30;;
2772;SDS011;1394;47.044;15.744;2022-07-17T00:19:09;12.67;;;9.83;;
2772;SDS011;1394;47.044;15.744;2022-07-17T00:21:38;9.60;;;8.60;;
2772;SDS011;1394;47.044;15.744;2022-07-17T00:24:05;9.53;;;8.50;;
2772;SDS011;1394;47.044;15.744;2022-07-17T00:26:33;9.83;;;8.03;;
2772;SDS011;1394;47.044;15.744;2022-07-17T00:29:04;9.07;;;8.20;;
2772;SDS011;1394;47.044;15.744;2022-07-17T00:31:31;9.63;;;8.80;;
2772;SDS011;1394;47.044;15.744;2022-07-17T00:33:58;10.53;;;9.47;;
2772;SDS011;1394;47.044;15.744;2022-07-17T00:36:26;10.57;;;9.57;;
2772;SDS011;1394;47.044;15.744;2022-07-17T00:38:54;10.47;;;9.47;;
2772;SDS011;1394;47.044;15.744;2022-07-17T00:41:22;12.43;;;11.23;;
2772;SDS011;1394;47.044;15.744;2022-07-17T00:43:50;10.13;;;9.23;;
2772;SDS011;1394;47.044;15.744;2022-07-17T00:46:28;9.73;;;8.83;;
2772;SDS011;1394;47.044;15.744;2022-07-17T00:48:55;10.00;;;9.00;;
2772;SDS011;1394;47.044;15.744;2022-07-17T00:51:23;11.63;;;10.43;;
2772;SDS011;1394;47.044;15.744;2022-07-17T00:53:50;11.13;;;10.13;;
2772;SDS011;1394;47.044;15.744;2022-07-17T00:56:19;9.20;;;8.30;;
2772;SDS011;1394;47.044;15.744;2022-07-17T00:58:51;10.87;;;9.77;;
2772;SDS011;1394;47.044;15.744;2022-07-17T01:01:18;11.40;;;10.30;;
2772;SDS011;1394;47.044;15.744;2022-07-17T01:03:45;9.30;;;8.37;;
2772;SDS011;1394;47.044;15.744;2022-07-17T01:06:13;9.47;;;8.57;;
2772;SDS011;1394;47.044;15.744;2022-07-17T01:08:40;10.13;;;9.23;;
2772;SDS011;1394;47.044;15.744;2022-07-17T01:11:08;12.53;;;11.23;;
2772;SDS011;1394;47.044;15.744;2022-07-17T01:13:37;11.70;;;10.60;;
2772;SDS011;1394;47.044;15.744;2022-07-17T01:16:04;15.50;;;11.03;;
2772;SDS011;1394;47.044;15.744;2022-07-17T01:18:32;12.03;;;10.90;;
2772;SDS011;1394;47.044;15.744;2022-07-17T01:21:04;10.80;;;9.80;;
2772;SDS011;1394;47.044;15.744;2022-07-17T01:23:31;11.80;;;10.60;;
2772;SDS011;1394;47.044;15.744;2022-07-17T01:25:58;11.23;;;10.13;;
2772;SDS011;1394;47.044;15.744;2022-07-17T01:28:25;10.20;;;9.20;;
2772;SDS011;1394;47.044;15.744;2022-07-17T01:30:54;9.83;;;7.90;;
2772;SDS011;1394;47.044;15.744;2022-07-17T01:33:24;10.43;;;8.00;;
2772;SDS011;1394;47.044;15.744;2022-07-17T01:35:52;8.47;;;7.67;;
2772;SDS011;1394;47.044;15.744;2022-07-17T01:38:21;7.67;;;6.87;;
2772;SDS011;1394;47.044;15.744;2022-07-17T01:40:50;9.17;;;7.70;;
2772;SDS011;1394;47.044;15.744;2022-07-17T01:43:17;9.60;;;8.13;;
2772;SDS011;1394;47.044;15.744;2022-07-17T01:45:45;8.30;;;7.50;;
2772;SDS011;1394;47.044;15.744;2022-07-17T01:48:22;7.67;;;6.87;;
2772;SDS011;1394;47.044;15.744;2022-07-17T01:50:50;8.27;;;6.87;;
2772;SDS011;1394;47.044;15.744;2022-07-17T01:53:17;8.10;;;6.93;;
2772;SDS011;1394;47.044;15.744;2022-07-17T01:55:48;7.47;;;6.73;;
2772;SDS011;1394;47.044;15.744;2022-07-17T01:58:16;8.50;;;6.60;;
2772;SDS011;1394;47.044;15.744;2022-07-17T02:00:57;7.40;;;6.37;;
2772;SDS011;1394;47.044;15.744;2022-07-17T02:03:25;7.33;;;6.60;;
2772;SDS011;1394;47.044;15.744;2022-07-17T02:05:52;6.40;;;5.90;;
2772;SDS011;1394;47.044;15.744;2022-07-17T02:08:19;8.30;;;6.73;;
2772;SDS011;1394;47.044;15.744;2022-07-17T02:10:48;6.20;;;5.70;;
2772;SDS011;1394;47.044;15.744;2022-07-17T02:13:16;7.20;;;6.50;;
2772;SDS011;1394;47.044;15.744;2022-07-17T02:15:43;6.30;;;5.70;;
2772;SDS011;1394;47.044;15.744;2022-07-17T02:18:11;6.50;;;5.80;;
2772;SDS011;1394;47.044;15.744;2022-07-17T02:20:38;5.97;;;5.47;;
2772;SDS011;1394;47.044;15.744;2022-07-17T02:23:06;6.17;;;5.57;;
2772;SDS011;1394;47.044;15.744;2022-07-17T02:25:34;7.17;;;5.87;;
2772;SDS011;1394;47.044;15.744;2022-07-17T02:28:02;7.43;;;6.43;;
2772;SDS011;1394;47.044;15.744;2022-07-17T02:30:30;6.13;;;5.47;;
2772;SDS011;1394;47.044;15.744;2022-07-17T02:32:57;6.63;;;5.67;;
2772;SDS011;1394;47.044;15.744;2022-07-17T02:35:24;7.90;;;7.10;;
2772;SDS011;1394;47.044;15.744;2022-07-17T02:37:54;7.13;;;6.40;;
2772;SDS011;1394;47.044;15.744;2022-07-17T02:40:33;10.60;;;7.43;;
2772;SDS011;1394;47.044;15.744;2022-07-17T02:43:00;11.10;;;7.07;;
2772;SDS011;1394;47.044;15.744;2022-07-17T02:45:29;11.27;;;6.57;;
2772;SDS011;1394;47.044;15.744;2022-07-17T02:47:56;7.90;;;6.70;;
2772;SDS011;1394;47.044;15.744;2022-07-17T02:50:23;7.90;;;7.10;;
2772;SDS011;1394;47.044;15.744;2022-07-17T02:52:51;7.00;;;6.30;;
2772;SDS011;1394;47.044;15.744;2022-07-17T02:55:19;5.87;;;5.30;;
2772;SDS011;1394;47.044;15.744;2022-07-17T02:57:46;5.87;;;5.27;;
2772;SDS011;1394;47.044;15.744;2022-07-17T03:00:14;5.83;;;5.27;;
2772;SDS011;1394;47.044;15.744;2022-07-17T03:02:44;6.27;;;4.93;;
2772;SDS011;1394;47.044;15.744;2022-07-17T03:05:11;5.30;;;4.80;;
2772;SDS011;1394;47.044;15.744;2022-07-17T03:07:40;6.87;;;6.00;;
2772;SDS011;1394;47.044;15.744;2022-07-17T03:10:09;9.20;;;5.60;;
2772;SDS011;1394;47.044;15.744;2022-07-17T03:12:36;10.13;;;5.90;;
2772;SDS011;1394;47.044;15.744;2022-07-17T03:15:10;7.70;;;6.07;;
2772;SDS011;1394;47.044;15.744;2022-07-17T03:17:37;6.53;;;5.90;;
2772;SDS011;1394;47.044;15.744;2022-07-17T03:20:07;7.30;;;6.40;;
2772;SDS011;1394;47.044;15.744;2022-07-17T03:22:38;9.80;;;6.43;;
2772;SDS011;1394;47.044;15.744;2022-07-17T03:25:07;6.37;;;5.77;;
2772;SDS011;1394;47.044;15.744;2022-07-17T03:27:34;5.90;;;5.40;;
2772;SDS011;1394;47.044;15.744;2022-07-17T03:30:03;6.43;;;5.80;;
2772;SDS011;1394;47.044;15.744;2022-07-17T03:32:44;6.60;;;5.90;;
2772;SDS011;1394;47.044;15.744;2022-07-17T03:35:13;7.60;;;5.60;;
2772;SDS011;1394;47.044;15.744;2022-07-17T03:37:41;6.33;;;5.67;;
2772;SDS011;1394;47.044;15.744;2022-07-17T03:40:10;6.70;;;6.00;;
2772;SDS011;1394;47.044;15.744;2022-07-17T03:42:37;6.53;;;5.90;;
2772;SDS011;1394;47.044;15.744;2022-07-17T03:45:05;7.20;;;6.07;;
2772;SDS011;1394;47.044;15.744;2022-07-17T03:47:35;7.27;;;4.70;;
2772;SDS011;1394;47.044;15.744;2022-07-17T03:50:04;6.83;;;4.80;;
2772;SDS011;1394;47.044;15.744;2022-07-17T03:52:33;8.13;;;5.50;;
2772;SDS011;1394;47.044;15.744;2022-07-17T03:55:01;5.83;;;4.97;;
2772;SDS011;1394;47.044;15.744;2022-07-17T03:57:29;6.20;;;5.50;;
2772;SDS011;1394;47.044;15.744;2022-07-17T03:59:57;8.17;;;5.80;;
2772;SDS011;1394;47.044;15.744;2022-07-17T04:02:24;6.10;;;5.50;;
2772;SDS011;1394;47.044;15.744;2022-07-17T04:04:52;10.13;;;6.07;;
2772;SDS011;1394;47.044;15.744;2022-07-17T04:07:20;6.33;;;5.73;;
2772;SDS011;1394;47.044;15.744;2022-07-17T04:09:58;6.20;;;5.27;;
2772;SDS011;1394;47.044;15.744;2022-07-17T04:12:26;5.17;;;4.67;;
2772;SDS011;1394;47.044;15.744;2022-07-17T04:14:53;6.67;;;5.40;;
2772;SDS011;1394;47.044;15.744;2022-07-17T04:17:24;5.07;;;4.60;;
2772;SDS011;1394;47.044;15.744;2022-07-17T04:19:53;10.33;;;5.63;;
2772;SDS011;1394;47.044;15.744;2022-07-17T04:22:20;7.37;;;4.80;;
2772;SDS011;1394;47.044;15.744;2022-07-17T04:24:48;6.23;;;4.93;;
2772;SDS011;1394;47.044;15.744;2022-07-17T04:27:16;5.57;;;4.97;;
2772;SDS011;1394;47.044;15.744;2022-07-17T04:29:44;6.77;;;5.40;;
2772;SDS011;1394;47.044;15.744;2022-07-17T04:32:11;6.07;;;5.47;;
2772;SDS011;1394;47.044;15.744;2022-07-17T04:34:41;5.70;;;4.50;;
2772;SDS011;1394;47.044;15.744;2022-07-17T04:37:15;10.57;;;4.97;;
2772;SDS011;1394;47.044;15.744;2022-07-17T04:39:43;7.77;;;5.50;;
2772;SDS011;1394;47.044;15.744;2022-07-17T04:42:11;6.50;;;4.73;;
2772;SDS011;1394;47.044;15.744;2022-07-17T04:44:39;5.30;;;4.80;;
2772;SDS011;1394;47.044;15.744;2022-07-17T04:47:07;6.20;;;4.97;;
2772;SDS011;1394;47.044;15.744;2022-07-17T04:49:34;6.33;;;5.70;;
2772;SDS011;1394;47.044;15.744;2022-07-17T04:52:01;6.67;;;4.83;;
2772;SDS011;1394;47.044;15.744;2022-07-17T04:54:29;6.40;;;5.03;;
2772;SDS011;1394;47.044;15.744;2022-07-17T04:56:56;6.40;;;4.70;;
2772;SDS011;1394;47.044;15.744;2022-07-17T04:59:23;8.87;;;6.03;;
2772;SDS011;1394;47.044;15.744;2022-07-17T05:01:53;8.87;;;6.47;;
2772;SDS011;1394;47.044;15.744;2022-07-17T05:04:21;7.83;;;7.03;;
2772;SDS011;1394;47.044;15.744;2022-07-17T05:06:48;8.57;;;7.00;;
2772;SDS011;1394;47.044;15.744;2022-07-17T05:11:58;9.80;;;7.87;;
2772;SDS011;1394;47.044;15.744;2022-07-17T05:14:26;9.60;;;7.40;;
2772;SDS011;1394;47.044;15.744;2022-07-17T05:16:54;7.70;;;7.00;;
2772;SDS011;1394;47.044;15.744;2022-07-17T05:19:23;7.93;;;6.80;;
2772;SDS011;1394;47.044;15.744;2022-07-17T05:21:54;8.47;;;7.60;;
2772;SDS011;1394;47.044;15.744;2022-07-17T05:24:21;7.70;;;7.00;;
2772;SDS011;1394;47.044;15.744;2022-07-17T05:26:48;6.73;;;6.07;;
2772;SDS011;1394;47.044;15.744;2022-07-17T05:29:15;11.33;;;10.17;;
2772;SDS011;1394;47.044;15.744;2022-07-17T05:31:42;8.67;;;7.80;;
2772;SDS011;1394;47.044;15.744;2022-07-17T05:34:11;8.80;;;6.20;;
2772;SDS011;1394;47.044;15.744;2022-07-17T05:36:39;7.50;;;6.63;;
2772;SDS011;1394;47.044;15.744;2022-07-17T05:39:06;7.03;;;6.40;;
2772;SDS011;1394;47.044;15.744;2022-07-17T05:41:36;7.83;;;6.70;;
2772;SDS011;1394;47.044;15.744;2022-07-17T05:44:04;7.73;;;7.03;;
2772;SDS011;1394;47.044;15.744;2022-07-17T05:46:31;7.90;;;7.10;;
2772;SDS011;1394;47.044;15.744;2022-07-17T05:48:58;7.40;;;6.60;;
2772;SDS011;1394;47.044;15.744;2022-07-17T05:51:27;8.10;;;6.87;;
2772;SDS011;1394;47.044;15.744;2022-07-17T05:53:55;7.00;;;6.20;;
2772;SDS011;1394;47.044;15.744;2022-07-17T05:56:23;7.80;;;7.00;;
2772;SDS011;1394;47.044;15.744;2022-07-17T05:59:04;8.00;;;7.20;;
2772;SDS011;1394;47.044;15.744;2022-07-17T06:01:32;6.80;;;6.10;;
2772;SDS011;1394;47.044;15.744;2022-07-17T06:04:00;6.37;;;5.70;;
2772;SDS011;1394;47.044;15.744;2022-07-17T06:06:29;3.43;;;2.50;;
2772;SDS011;1394;47.044;15.744;2022-07-17T06:08:59;3.20;;;2.60;;
2772;SDS011;1394;47.044;15.744;2022-07-17T06:11:26;6.33;;;2.70;;
2772;SDS011;1394;47.044;15.744;2022-07-17T06:13:54;3.67;;;2.40;;
2772;SDS011;1394;47.044;15.744;2022-07-17T06:16:21;2.77;;;2.17;;
2772;SDS011;1394;47.044;15.744;2022-07-17T06:18:48;3.07;;;2.20;;
2772;SDS011;1394;47.044;15.744;2022-07-17T06:21:16;4.93;;;2.93;;
2772;SDS011;1394;47.044;15.744;2022-07-17T06:23:45;3.90;;;2.40;;
2772;SDS011;1394;47.044;15.744;2022-07-17T06:26:13;4.53;;;2.63;;
2772;SDS011;1394;47.044;15.744;2022-07-17T06:28:40;3.30;;;2.27;;
2772;SDS011;1394;47.044;15.744;2022-07-17T06:31:07;3.73;;;2.40;;
2772;SDS011;1394;47.044;15.744;2022-07-17T06:33:34;4.53;;;2.53;;
2772;SDS011;1394;47.044;15.744;2022-07-17T06:36:02;3.33;;;2.63;;
2772;SDS011;1394;47.044;15.744;2022-07-17T06:38:29;3.20;;;2.57;;
2772;SDS011;1394;47.044;15.744;2022-07-17T06:40:58;4.27;;;2.33;;
2772;SDS011;1394;47.044;15.744;2022-07-17T06:43:26;3.30;;;2.20;;
2772;SDS011;1394;47.044;15.744;2022-07-17T06:45:53;2.40;;;2.00;;
2772;SDS011;1394;47.044;15.744;2022-07-17T06:48:21;3.47;;;2.50;;
2772;SDS011;1394;47.044;15.744;2022-07-17T06:50:48;3.70;;;2.13;;
2772;SDS011;1394;47.044;15.744;2022-07-17T06:53:16;5.70;;;2.67;;
2772;SDS011;1394;47.044;15.744;2022-07-17T06:55:44;3.77;;;2.40;;
2772;SDS011;1394;47.044;15.744;2022-07-17T06:58:13;4.60;;;2.10;;
2772;SDS011;1394;47.044;15.744;2022-07-17T07:00:43;3.47;;;2.30;;
2772;SDS011;1394;47.044;15.744;2022-07-17T07:03:10;2.87;;;2.03;;
2772;SDS011;1394;47.044;15.744;2022-07-17T07:05:38;2.83;;;2.20;;
2772;SDS011;1394;47.044;15.744;2022-07-17T07:08:05;2.90;;;2.43;;
2772;SDS011;1394;47.044;15.744;2022-07-17T07:10:36;6.03;;;2.60;;
2772;SDS011;1394;47.044;15.744;2022-07-17T07:13:04;7.00;;;2.87;;
2772;SDS011;1394;47.044;15.744;2022-07-17T07:15:33;4.43;;;2.10;;
2772;SDS011;1394;47.044;15.744;2022-07-17T07:18:01;4.43;;;2.87;;
2772;SDS011;1394;47.044;15.744;2022-07-17T07:20:29;4.10;;;2.40;;
2772;SDS011;1394;47.044;15.744;2022-07-17T07:22:56;4.97;;;2.20;;
2772;SDS011;1394;47.044;15.744;2022-07-17T07:25:23;6.60;;;2.67;;
2772;SDS011;1394;47.044;15.744;2022-07-17T07:27:51;2.87;;;2.47;;
2772;SDS011;1394;47.044;15.744;2022-07-17T07:30:18;6.27;;;2.50;;
2772;SDS011;1394;47.044;15.744;2022-07-17T07:32:47;2.90;;;2.27;;
2772;SDS011;1394;47.044;15.744;2022-07-17T07:35:15;3.53;;;2.10;;
2772;SDS011;1394;47.044;15.744;2022-07-17T07:37:42;5.13;;;2.50;;
2772;SDS011;1394;47.044;15.744;2022-07-17T07:40:10;3.03;;;2.20;;
2772;SDS011;1394;47.044;15.744;2022-07-17T07:42:37;2.80;;;2.23;;
2772;SDS011;1394;47.044;15.744;2022-07-17T07:45:05;3.20;;;2.33;;
2772;SDS011;1394;47.044;15.744;2022-07-17T07:47:32;3.03;;;2.10;;
2772;SDS011;1394;47.044;15.744;2022-07-17T07:50:01;3.50;;;2.50;;
2772;SDS011;1394;47.044;15.744;2022-07-17T07:52:28;3.40;;;2.43;;
2772;SDS011;1394;47.044;15.744;2022-07-17T07:54:56;3.20;;;2.10;;
2772;SDS011;1394;47.044;15.744;2022-07-17T07:57:23;4.80;;;2.50;;
2772;SDS011;1394;47.044;15.744;2022-07-17T07:59:51;4.70;;;3.90;;
2772;SDS011;1394;47.044;15.744;2022-07-17T08:02:19;4.10;;;2.37;;
2772;SDS011;1394;47.044;15.744;2022-07-17T08:04:46;5.40;;;3.43;;
2772;SDS011;1394;47.044;15.744;2022-07-17T08:07:15;3.07;;;2.30;;
2772;SDS011;1394;47.044;15.744;2022-07-17T08:09:43;3.27;;;2.63;;
2772;SDS011;1394;47.044;15.744;2022-07-17T08:12:10;3.47;;;2.80;;
2772;SDS011;1394;47.044;15.744;2022-07-17T08:14:41;4.03;;;2.60;;
2772;SDS011;1394;47.044;15.744;2022-07-17T08:17:09;3.07;;;2.27;;
2772;SDS011;1394;47.044;15.744;2022-07-17T08:19:36;4.10;;;2.13;;
2772;SDS011;1394;47.044;15.744;2022-07-17T08:22:03;7.60;;;3.53;;
2772;SDS011;1394;47.044;15.744;2022-07-17T08:24:33;3.90;;;2.80;;
2772;SDS011;1394;47.044;15.744;2022-07-17T08:27:00;4.20;;;2.40;;
2772;SDS011;1394;47.044;15.744;2022-07-17T08:29:28;4.17;;;2.90;;
2772;SDS011;1394;47.044;15.744;2022-07-17T08:31:56;3.77;;;2.73;;
2772;SDS011;1394;47.044;15.744;2022-07-17T08:34:24;3.60;;;2.60;;
2772;SDS011;1394;47.044;15.744;2022-07-17T08:36:51;4.13;;;2.53;;
2772;SDS011;1394;47.044;15.744;2022-07-17T08:39:18;3.43;;;2.83;;
2772;SDS011;1394;47.044;15.744;2022-07-17T08:41:47;4.60;;;2.60;;
2772;SDS011;1394;47.044;15.744;2022-07-17T08:44:14;4.20;;;2.70;;
2772;SDS011;1394;47.044;15.744;2022-07-17T08:46:41;4.00;;;3.17;;
2772;SDS011;1394;47.044;15.744;2022-07-17T08:49:09;4.80;;;3.30;;
2772;SDS011;1394;47.044;15.744;2022-07-17T08:51:37;3.00;;;2.57;;
2772;SDS011;1394;47.044;15.744;2022-07-17T08:54:04;3.70;;;2.23;;
2772;SDS011;1394;47.044;15.744;2022-07-17T08:56:31;3.70;;;3.30;;
2772;SDS011;1394;47.044;15.744;2022-07-17T08:59:00;4.10;;;2.90;;
2772;SDS011;1394;47.044;15.744;2022-07-17T09:01:28;3.40;;;2.70;;
2772;SDS011;1394;47.044;15.744;2022-07-17T09:03:56;5.70;;;2.63;;
2772;SDS011;1394;47.044;15.744;2022-07-17T09:06:25;4.17;;;3.17;;
2772;SDS011;1394;47.044;15.744;2022-07-17T09:09:03;2.90;;;2.10;;
2772;SDS011;1394;47.044;15.744;2022-07-17T09:11:44;4.13;;;3.40;;
2772;SDS011;1394;47.044;15.744;2022-07-17T09:14:16;9.93;;;8.70;;
2772;SDS011;1394;47.044;15.744;2022-07-17T09:16:47;3.60;;;2.43;;
2772;SDS011;1394;47.044;15.744;2022-07-17T09:19:25;5.50;;;2.73;;
2772;SDS011;1394;47.044;15.744;2022-07-17T09:22:02;4.60;;;2.60;;
2772;SDS011;1394;47.044;15.744;2022-07-17T09:24:37;4.03;;;2.00;;
2772;SDS011;1394;47.044;15.744;2022-07-17T09:27:07;3.93;;;2.57;;
2772;SDS011;1394;47.044;15.744;2022-07-17T09:29:48;4.50;;;2.97;;
2772;SDS011;1394;47.044;15.744;2022-07-17T09:32:17;5.00;;;2.70;;
2772;SDS011;1394;47.044;15.744;2022-07-17T09:34:45;3.63;;;2.30;;
2772;SDS011;1394;47.044;15.744;2022-07-17T09:37:12;3.53;;;2.27;;
2772;SDS011;1394;47.044;15.744;2022-07-17T09:39:40;3.60;;;2.73;;
2772;SDS011;1394;47.044;15.744;2022-07-17T09:42:07;4.60;;;2.87;;
2772;SDS011;1394;47.044;15.744;2022-07-17T09:44:37;4.37;;;3.67;;
2772;SDS011;1394;47.044;15.744;2022-07-17T09:47:05;4.93;;;2.90;;
2772;SDS011;1394;47.044;15.744;2022-07-17T09:49:33;3.97;;;2.50;;
2772;SDS011;1394;47.044;15.744;2022-07-17T09:52:01;2.77;;;2.33;;
2772;SDS011;1394;47.044;15.744;2022-07-17T09:54:29;3.87;;;2.70;;
2772;SDS011;1394;47.044;15.744;2022-07-17T09:56:58;5.87;;;2.43;;
2772;SDS011;1394;47.044;15.744;2022-07-17T09:59:27;6.00;;;2.63;;
2772;SDS011;1394;47.044;15.744;2022-07-17T10:01:57;4.17;;;2.50;;
2772;SDS011;1394;47.044;15.744;2022-07-17T10:04:26;3.90;;;3.20;;
2772;SDS011;1394;47.044;15.744;2022-07-17T10:06:54;3.70;;;2.80;;
2772;SDS011;1394;47.044;15.744;2022-07-17T10:09:21;4.90;;;2.10;;
2772;SDS011;1394;47.044;15.744;2022-07-17T10:11:49;5.13;;;2.67;;
2772;SDS011;1394;47.044;15.744;2022-07-17T10:14:17;5.37;;;2.53;;
2772;SDS011;1394;47.044;15.744;2022-07-17T10:16:45;3.50;;;2.37;;
2772;SDS011;1394;47.044;15.744;2022-07-17T10:19:17;3.37;;;2.50;;
2772;SDS011;1394;47.044;15.744;2022-07-17T10:21:55;3.47;;;2.97;;
2772;SDS011;1394;47.044;15.744;2022-07-17T10:24:23;3.70;;;2.40;;
2772;SDS011;1394;47.044;15.744;2022-07-17T10:26:57;5.37;;;2.40;;
2772;SDS011;1394;47.044;15.744;2022-07-17T10:29:28;3.17;;;2.10;;
2772;SDS011;1394;47.044;15.744;2022-07-17T10:31:57;4.10;;;2.10;;
2772;SDS011;1394;47.044;15.744;2022-07-17T10:34:39;3.00;;;2.20;;
2772;SDS011;1394;47.044;15.744;2022-07-17T10:37:17;5.37;;;2.30;;
2772;SDS011;1394;47.044;15.744;2022-07-17T10:39:52;3.40;;;2.13;;
2772;SDS011;1394;47.044;15.744;2022-07-17T10:45:05;3.93;;;2.10;;
2772;SDS011;1394;47.044;15.744;2022-07-17T10:47:41;4.23;;;2.53;;
2772;SDS011;1394;47.044;15.744;2022-07-17T10:50:10;2.63;;;2.20;;
2772;SDS011;1394;47.044;15.744;2022-07-17T10:52:38;2.73;;;2.30;;
2772;SDS011;1394;47.044;15.744;2022-07-17T10:55:06;3.80;;;2.40;;
2772;SDS011;1394;47.044;15.744;2022-07-17T10:57:46;4.30;;;2.20;;
2772;SDS011;1394;47.044;15.744;2022-07-17T11:00:14;4.40;;;2.10;;
2772;SDS011;1394;47.044;15.744;2022-07-17T11:02:43;4.20;;;2.30;;
2772;SDS011;1394;47.044;15.744;2022-07-17T11:05:12;5.70;;;2.50;;
2772;SDS011;1394;47.044;15.744;2022-07-17T11:07:50;3.97;;;2.13;;
2772;SDS011;1394;47.044;15.744;2022-07-17T11:10:18;4.00;;;2.30;;
2772;SDS011;1394;47.044;15.744;2022-07-17T11:12:46;3.03;;;2.27;;
2772;SDS011;1394;47.044;15.744;2022-07-17T11:15:15;3.40;;;2.30;;
2772;SDS011;1394;47.044;15.744;2022-07-17T11:17:46;4.70;;;2.20;;
2772;SDS011;1394;47.044;15.744;2022-07-17T11:20:16;3.90;;;2.57;;
2772;SDS011;1394;47.044;15.744;2022-07-17T11:22:44;6.33;;;2.73;;
2772;SDS011;1394;47.044;15.744;2022-07-17T11:25:11;3.30;;;2.20;;
2772;SDS011;1394;47.044;15.744;2022-07-17T11:27:39;3.53;;;2.40;;
2772;SDS011;1394;47.044;15.744;2022-07-17T11:30:10;4.67;;;2.20;;
2772;SDS011;1394;47.044;15.744;2022-07-17T11:32:39;4.40;;;2.33;;
2772;SDS011;1394;47.044;15.744;2022-07-17T11:35:18;3.63;;;2.70;;
2772;SDS011;1394;47.044;15.744;2022-07-17T11:37:47;4.87;;;2.70;;
2772;SDS011;1394;47.044;15.744;2022-07-17T11:40:15;5.70;;;3.10;;
2772;SDS011;1394;47.044;15.744;2022-07-17T11:42:43;4.37;;;2.97;;
2772;SDS011;1394;47.044;15.744;2022-07-17T11:45:10;3.80;;;2.80;;
2772;SDS011;1394;47.044;15.744;2022-07-17T11:47:39;3.80;;;2.10;;
2772;SDS011;1394;47.044;15.744;2022-07-17T11:50:09;4.73;;;3.07;;
2772;SDS011;1394;47.044;15.744;2022-07-17T11:52:42;3.43;;;2.17;;
2772;SDS011;1394;47.044;15.744;2022-07-17T11:55:10;4.73;;;2.80;;
2772;SDS011;1394;47.044;15.744;2022-07-17T11:57:42;3.60;;;2.60;;
2772;SDS011;1394;47.044;15.744;2022-07-17T12:00:11;3.40;;;2.67;;
2772;SDS011;1394;47.044;15.744;2022-07-17T12:02:39;3.57;;;2.37;;
2772;SDS011;1394;47.044;15.744;2022-07-17T12:05:07;3.20;;;2.30;;
2772;SDS011;1394;47.044;15.744;2022-07-17T12:07:40;3.90;;;2.50;;
2772;SDS011;1394;47.044;15.744;2022-07-17T12:10:12;3.80;;;2.20;;
2772;SDS011;1394;47.044;15.744;2022-07-17T12:12:50;3.23;;;2.93;;
2772;SDS011;1394;47.044;15.744;2022-07-17T12:15:19;4.07;;;2.53;;
2772;SDS011;1394;47.044;15.744;2022-07-17T12:17:47;3.27;;;2.37;;
2772;SDS011;1394;47.044;15.744;2022-07-17T12:20:17;6.83;;;2.87;;
2772;SDS011;1394;47.044;15.744;2022-07-17T12:22:48;3.70;;;2.70;;
2772;SDS011;1394;47.044;15.744;2022-07-17T12:25:24;3.20;;;2.70;;
2772;SDS011;1394;47.044;15.744;2022-07-17T12:27:52;6.00;;;2.40;;
2772;SDS011;1394;47.044;15.744;2022-07-17T12:30:20;4.20;;;2.33;;
2772;SDS011;1394;47.044;15.744;2022-07-17T12:32:55;3.43;;;2.33;;
2772;SDS011;1394;47.044;15.744;2022-07-17T12:35:22;4.50;;;4.10;;
2772;SDS011;1394;47.044;15.744;2022-07-17T12:37:51;5.40;;;3.37;;
2772;SDS011;1394;47.044;15.744;2022-07-17T12:40:18;3.70;;;2.50;;
2772;SDS011;1394;47.044;15.744;2022-07-17T12:42:48;3.10;;;2.20;;
2772;SDS011;1394;47.044;15.744;2022-07-17T12:45:15;3.80;;;2.90;;
2772;SDS011;1394;47.044;15.744;2022-07-17T12:47:42;4.07;;;2.40;;
2772;SDS011;1394;47.044;15.744;2022-07-17T12:50:13;4.40;;;2.17;;
2772;SDS011;1394;47.044;15.744;2022-07-17T12:52:41;4.67;;;2.60;;
2772;SDS011;1394;47.044;15.744;2022-07-17T12:55:11;5.27;;;3.07;;
2772;SDS011;1394;47.044;15.744;2022-07-17T12:57:39;3.33;;;2.33;;
2772;SDS011;1394;47.044;15.744;2022-07-17T13:00:08;2.80;;;2.13;;
2772;SDS011;1394;47.044;15.744;2022-07-17T13:02:36;5.97;;;4.13;;
2772;SDS011;1394;47.044;15.744;2022-07-17T13:05:04;2.57;;;2.20;;
2772;SDS011;1394;47.044;15.744;2022-07-17T13:07:32;4.93;;;2.10;;
2772;SDS011;1394;47.044;15.744;2022-07-17T13:09:59;2.97;;;2.30;;
2772;SDS011;1394;47.044;15.744;2022-07-17T13:12:27;3.23;;;2.33;;
2772;SDS011;1394;47.044;15.744;2022-07-17T13:14:54;2.93;;;2.60;;
2772;SDS011;1394;47.044;15.744;2022-07-17T13:17:25;3.50;;;2.57;;
2772;SDS011;1394;47.044;15.744;2022-07-17T13:19:55;5.30;;;2.80;;
2772;SDS011;1394;47.044;15.744;2022-07-17T13:22:23;5.13;;;2.30;;
2772;SDS011;1394;47.044;15.744;2022-07-17T13:24:50;2.87;;;2.37;;
2772;SDS011;1394;47.044;15.744;2022-07-17T13:27:18;3.90;;;2.70;;
2772;SDS011;1394;47.044;15.744;2022-07-17T13:29:45;3.17;;;2.40;;
2772;SDS011;1394;47.044;15.744;2022-07-17T13:32:12;5.50;;;2.77;;
2772;SDS011;1394;47.044;15.744;2022-07-17T13:34:42;3.90;;;2.60;;
2772;SDS011;1394;47.044;15.744;2022-07-17T13:37:09;4.73;;;2.53;;
2772;SDS011;1394;47.044;15.744;2022-07-17T13:39:38;4.97;;;2.33;;
2772;SDS011;1394;47.044;15.744;2022-07-17T13:42:05;2.90;;;2.43;;
2772;SDS011;1394;47.044;15.744;2022-07-17T13:44:33;4.30;;;2.43;;
2772;SDS011;1394;47.044;15.744;2022-07-17T13:47:03;5.43;;;2.40;;
2772;SDS011;1394;47.044;15.744;2022-07-17T13:49:34;3.43;;;2.50;;
2772;SDS011;1394;47.044;15.744;2022-07-17T13:52:05;2.53;;;2.20;;
2772;SDS011;1394;47.044;15.744;2022-07-17T13:54:34;5.03;;;2.80;;
2772;SDS011;1394;47.044;15.744;2022-07-17T13:57:02;3.30;;;2.17;;
2772;SDS011;1394;47.044;15.744;2022-07-17T13:59:30;3.00;;;2.40;;
2772;SDS011;1394;47.044;15.744;2022-07-17T14:01:58;4.10;;;2.40;;
2772;SDS011;1394;47.044;15.744;2022-07-17T14:04:25;3.00;;;2.50;;
2772;SDS011;1394;47.044;15.744;2022-07-17T14:06:53;3.90;;;2.83;;
2772;SDS011;1394;47.044;15.744;2022-07-17T14:09:22;4.53;;;2.37;;
2772;SDS011;1394;47.044;15.744;2022-07-17T14:11:49;2.80;;;2.17;;
2772;SDS011;1394;47.044;15.744;2022-07-17T14:14:17;2.37;;;2.17;;
2772;SDS011;1394;47.044;15.744;2022-07-17T14:19:29;3.20;;;2.33;;
2772;SDS011;1394;47.044;15.744;2022-07-17T14:21:56;3.10;;;2.50;;
2772;SDS011;1394;47.044;15.744;2022-07-17T14:24:27;3.23;;;2.33;;
2772;SDS011;1394;47.044;15.744;2022-07-17T14:26:54;2.73;;;2.40;;
2772;SDS011;1394;47.044;15.744;2022-07-17T14:29:21;2.53;;;2.00;;
2772;SDS011;1394;47.044;15.744;2022-07-17T14:31:50;3.60;;;2.33;;
2772;SDS011;1394;47.044;15.744;2022-07-17T14:34:17;4.40;;;2.57;;
2772;SDS011;1394;47.044;15.744;2022-07-17T14:36:45;3.30;;;2.40;;
2772;SDS011;1394;47.044;15.744;2022-07-17T14:39:12;4.43;;;2.40;;
2772;SDS011;1394;47.044;15.744;2022-07-17T14:41:41;3.40;;;2.33;;
2772;SDS011;1394;47.044;15.744;2022-07-17T14:44:10;3.23;;;2.33;;
2772;SDS011;1394;47.044;15.744;2022-07-17T14:46:37;3.23;;;2.30;;
2772;SDS011;1394;47.044;15.744;2022-07-17T14:49:04;2.90;;;2.40;;
2772;SDS011;1394;47.044;15.744;2022-07-17T14:51:32;3.40;;;2.30;;
2772;SDS011;1394;47.044;15.744;2022-07-17T14:53:59;2.53;;;2.17;;
2772;SDS011;1394;47.044;15.744;2022-07-17T14:56:30;2.60;;;2.20;;
2772;SDS011;1394;47.044;15.744;2022-07-17T14:58:59;2.87;;;2.20;;
2772;SDS011;1394;47.044;15.744;2022-07-17T15:01:29;3.80;;;2.07;;
2772;SDS011;1394;47.044;15.744;2022-07-17T15:03:58;3.40;;;2.27;;
2772;SDS011;1394;47.044;15.744;2022-07-17T15:06:25;5.10;;;2.17;;
2772;SDS011;1394;47.044;15.744;2022-07-17T15:08:53;4.03;;;2.50;;
2772;SDS011;1394;47.044;15.744;2022-07-17T15:11:20;3.50;;;2.37;;
2772;SDS011;1394;47.044;15.744;2022-07-17T15:13:51;2.83;;;2.27;;
2772;SDS011;1394;47.044;15.744;2022-07-17T15:16:20;2.57;;;2.10;;
2772;SDS011;1394;47.044;15.744;2022-07-17T15:18:48;4.03;;;2.40;;